sensor_id;sensor_type;location;lat;lon;timestamp;P1;durP1;ratioP1;P2;durP2;ratioP2
20880;SDS011;10600;53.096;8.802;2023-04-16T00:00:55;43.05;;;28.35;;
20880;SDS011;10600;53.096;8.802;2023-04-16T00:01:56;45.53;;;28.02;;
20880;SDS011;10600;53.096;8.802;2023-04-16T00:02:57;40.67;;;26.45;;
20880;SDS011;10600;53.096;8.802;2023-04-16T00:03:58;43.15;;;26.50;;
20880;SDS011;10600;53.096;8.802;2023-04-16T00:04:58;43.22;;;28.20;;
20880;SDS011;10600;53.096;8.802;2023-04-16T00:05:59;38.75;;;26.17;;
20880;SDS011;10600;53.096;8.802;2023-04-16T00:07:00;43.58;;;26.70;;
20880;SDS011;10600;53.096;8.802;2023-04-16T00:08:00;40.20;;;26.48;;
20880;SDS011;10600;53.096;8.802;2023-04-16T00:09:01;37.63;;;25.17;;
20880;SDS011;10600;53.096;8.802;2023-04-16T00:10:02;45.30;;;26.38;;
20880;SDS011;10600;53.096;8.802;2023-04-16T00:11:04;43.78;;;26.92;;
20880;SDS011;10600;53.096;8.802;2023-04-16T00:12:05;42.53;;;27.13;;
20880;SDS011;10600;53.096;8.802;2023-04-16T00:13:05;39.40;;;27.40;;
20880;SDS011;10600;53.096;8.802;2023-04-16T00:14:06;42.08;;;26.35;;
20880;SDS011;10600;53.096;8.802;2023-04-16T00:15:07;43.78;;;27.42;;
20880;SDS011;10600;53.096;8.802;2023-04-16T00:16:08;42.47;;;27.70;;
20880;SDS011;10600;53.096;8.802;2023-04-16T00:17:08;39.08;;;26.23;;
20880;SDS011;10600;53.096;8.802;2023-04-16T00:18:09;41.40;;;26.95;;
20880;SDS011;10600;53.096;8.802;2023-04-16T00:19:10;45.30;;;26.50;;
20880;SDS011;10600;53.096;8.802;2023-04-16T00:20:11;41.70;;;27.85;;
20880;SDS011;10600;53.096;8.802;2023-04-16T00:21:11;40.55;;;26.77;;
20880;SDS011;10600;53.096;8.802;2023-04-16T00:22:12;41.22;;;27.38;;
20880;SDS011;10600;53.096;8.802;2023-04-16T00:23:13;44.10;;;28.33;;
20880;SDS011;10600;53.096;8.802;2023-04-16T00:24:13;39.60;;;26.15;;
20880;SDS011;10600;53.096;8.802;2023-04-16T00:25:14;42.97;;;26.75;;
20880;SDS011;10600;53.096;8.802;2023-04-16T00:26:14;45.38;;;28.58;;
20880;SDS011;10600;53.096;8.802;2023-04-16T00:27:15;46.38;;;27.85;;
20880;SDS011;10600;53.096;8.802;2023-04-16T00:28:17;47.25;;;27.08;;
20880;SDS011;10600;53.096;8.802;2023-04-16T00:29:18;40.38;;;28.27;;
20880;SDS011;10600;53.096;8.802;2023-04-16T00:30:19;42.08;;;27.17;;
20880;SDS011;10600;53.096;8.802;2023-04-16T00:31:29;39.63;;;27.52;;
20880;SDS011;10600;53.096;8.802;2023-04-16T00:32:30;41.28;;;27.67;;
20880;SDS011;10600;53.096;8.802;2023-04-16T00:33:31;43.20;;;27.83;;
20880;SDS011;10600;53.096;8.802;2023-04-16T00:34:32;43.47;;;26.83;;
20880;SDS011;10600;53.096;8.802;2023-04-16T00:35:33;41.80;;;27.50;;
20880;SDS011;10600;53.096;8.802;2023-04-16T00:36:33;46.30;;;27.55;;
20880;SDS011;10600;53.096;8.802;2023-04-16T00:37:34;45.83;;;29.88;;
20880;SDS011;10600;53.096;8.802;2023-04-16T00:38:35;46.08;;;29.08;;
20880;SDS011;10600;53.096;8.802;2023-04-16T00:39:36;44.17;;;29.02;;
20880;SDS011;10600;53.096;8.802;2023-04-16T00:40:36;44.95;;;27.60;;
20880;SDS011;10600;53.096;8.802;2023-04-16T00:41:37;48.95;;;29.75;;
20880;SDS011;10600;53.096;8.802;2023-04-16T00:42:38;45.58;;;28.80;;
20880;SDS011;10600;53.096;8.802;2023-04-16T00:43:39;42.78;;;28.02;;
20880;SDS011;10600;53.096;8.802;2023-04-16T00:44:39;44.92;;;28.00;;
20880;SDS011;10600;53.096;8.802;2023-04-16T00:45:40;45.28;;;30.05;;
20880;SDS011;10600;53.096;8.802;2023-04-16T00:46:40;44.30;;;29.08;;
20880;SDS011;10600;53.096;8.802;2023-04-16T00:47:41;44.72;;;30.42;;
20880;SDS011;10600;53.096;8.802;2023-04-16T00:48:42;44.38;;;28.45;;
20880;SDS011;10600;53.096;8.802;2023-04-16T00:49:44;45.63;;;30.35;;
20880;SDS011;10600;53.096;8.802;2023-04-16T00:50:45;46.50;;;30.35;;
20880;SDS011;10600;53.096;8.802;2023-04-16T00:51:45;46.55;;;30.27;;
20880;SDS011;10600;53.096;8.802;2023-04-16T00:52:47;45.78;;;29.10;;
20880;SDS011;10600;53.096;8.802;2023-04-16T00:53:48;47.03;;;30.30;;
20880;SDS011;10600;53.096;8.802;2023-04-16T00:54:49;44.55;;;29.52;;
20880;SDS011;10600;53.096;8.802;2023-04-16T00:55:50;43.72;;;28.70;;
20880;SDS011;10600;53.096;8.802;2023-04-16T00:56:51;47.55;;;30.33;;
20880;SDS011;10600;53.096;8.802;2023-04-16T00:57:51;49.40;;;31.80;;
20880;SDS011;10600;53.096;8.802;2023-04-16T00:58:53;48.53;;;30.80;;
20880;SDS011;10600;53.096;8.802;2023-04-16T00:59:55;49.90;;;30.70;;
20880;SDS011;10600;53.096;8.802;2023-04-16T01:00:56;47.83;;;32.50;;
20880;SDS011;10600;53.096;8.802;2023-04-16T01:01:57;49.70;;;31.33;;
20880;SDS011;10600;53.096;8.802;2023-04-16T01:02:57;47.08;;;30.58;;
20880;SDS011;10600;53.096;8.802;2023-04-16T01:03:59;46.88;;;30.92;;
20880;SDS011;10600;53.096;8.802;2023-04-16T01:05:00;48.22;;;31.60;;
20880;SDS011;10600;53.096;8.802;2023-04-16T01:06:02;47.42;;;31.85;;
20880;SDS011;10600;53.096;8.802;2023-04-16T01:07:02;49.78;;;33.30;;
20880;SDS011;10600;53.096;8.802;2023-04-16T01:08:03;48.53;;;31.73;;
20880;SDS011;10600;53.096;8.802;2023-04-16T01:09:04;52.45;;;32.70;;
20880;SDS011;10600;53.096;8.802;2023-04-16T01:10:05;49.20;;;32.13;;
20880;SDS011;10600;53.096;8.802;2023-04-16T01:11:06;53.63;;;31.52;;
20880;SDS011;10600;53.096;8.802;2023-04-16T01:12:07;51.55;;;31.27;;
20880;SDS011;10600;53.096;8.802;2023-04-16T01:13:07;51.75;;;31.90;;
20880;SDS011;10600;53.096;8.802;2023-04-16T01:14:08;50.60;;;30.65;;
20880;SDS011;10600;53.096;8.802;2023-04-16T01:15:09;50.08;;;31.88;;
20880;SDS011;10600;53.096;8.802;2023-04-16T01:16:10;54.10;;;32.47;;
20880;SDS011;10600;53.096;8.802;2023-04-16T01:17:11;56.25;;;32.92;;
20880;SDS011;10600;53.096;8.802;2023-04-16T01:18:15;49.97;;;32.63;;
20880;SDS011;10600;53.096;8.802;2023-04-16T01:19:17;49.22;;;30.83;;
20880;SDS011;10600;53.096;8.802;2023-04-16T01:20:18;53.80;;;31.70;;
20880;SDS011;10600;53.096;8.802;2023-04-16T01:21:19;48.10;;;30.15;;
20880;SDS011;10600;53.096;8.802;2023-04-16T01:22:19;51.60;;;30.23;;
20880;SDS011;10600;53.096;8.802;2023-04-16T01:23:20;48.75;;;32.53;;
20880;SDS011;10600;53.096;8.802;2023-04-16T01:24:21;51.70;;;32.35;;
20880;SDS011;10600;53.096;8.802;2023-04-16T01:25:22;52.75;;;31.98;;
20880;SDS011;10600;53.096;8.802;2023-04-16T01:26:22;50.92;;;32.60;;
20880;SDS011;10600;53.096;8.802;2023-04-16T01:27:23;46.20;;;31.05;;
20880;SDS011;10600;53.096;8.802;2023-04-16T01:28:24;54.40;;;33.17;;
20880;SDS011;10600;53.096;8.802;2023-04-16T01:29:25;53.92;;;32.58;;
20880;SDS011;10600;53.096;8.802;2023-04-16T01:30:26;54.67;;;32.38;;
20880;SDS011;10600;53.096;8.802;2023-04-16T01:31:27;50.80;;;31.95;;
20880;SDS011;10600;53.096;8.802;2023-04-16T01:32:30;47.47;;;28.33;;
20880;SDS011;10600;53.096;8.802;2023-04-16T01:33:31;51.40;;;30.48;;
20880;SDS011;10600;53.096;8.802;2023-04-16T01:34:31;48.58;;;32.35;;
20880;SDS011;10600;53.096;8.802;2023-04-16T01:35:32;56.25;;;33.88;;
20880;SDS011;10600;53.096;8.802;2023-04-16T01:36:33;50.08;;;31.35;;
20880;SDS011;10600;53.096;8.802;2023-04-16T01:37:33;50.03;;;31.27;;
20880;SDS011;10600;53.096;8.802;2023-04-16T01:38:34;53.17;;;33.35;;
20880;SDS011;10600;53.096;8.802;2023-04-16T01:39:35;50.83;;;33.15;;
20880;SDS011;10600;53.096;8.802;2023-04-16T01:40:36;53.20;;;31.23;;
20880;SDS011;10600;53.096;8.802;2023-04-16T01:41:37;50.10;;;32.20;;
20880;SDS011;10600;53.096;8.802;2023-04-16T01:42:37;51.78;;;32.20;;
20880;SDS011;10600;53.096;8.802;2023-04-16T01:43:38;48.95;;;31.90;;
20880;SDS011;10600;53.096;8.802;2023-04-16T01:44:38;47.70;;;30.70;;
20880;SDS011;10600;53.096;8.802;2023-04-16T01:45:39;47.90;;;31.27;;
20880;SDS011;10600;53.096;8.802;2023-04-16T01:46:40;49.58;;;32.03;;
20880;SDS011;10600;53.096;8.802;2023-04-16T01:47:40;51.67;;;32.53;;
20880;SDS011;10600;53.096;8.802;2023-04-16T01:48:41;53.53;;;32.20;;
20880;SDS011;10600;53.096;8.802;2023-04-16T01:49:42;50.65;;;30.13;;
20880;SDS011;10600;53.096;8.802;2023-04-16T01:50:44;53.35;;;33.50;;
20880;SDS011;10600;53.096;8.802;2023-04-16T01:51:45;48.78;;;31.40;;
20880;SDS011;10600;53.096;8.802;2023-04-16T01:52:46;55.80;;;33.72;;
20880;SDS011;10600;53.096;8.802;2023-04-16T01:53:46;57.97;;;34.30;;
20880;SDS011;10600;53.096;8.802;2023-04-16T01:54:47;54.72;;;32.88;;
20880;SDS011;10600;53.096;8.802;2023-04-16T01:55:48;55.15;;;33.72;;
20880;SDS011;10600;53.096;8.802;2023-04-16T01:56:49;52.45;;;33.45;;
20880;SDS011;10600;53.096;8.802;2023-04-16T01:57:50;56.17;;;34.00;;
20880;SDS011;10600;53.096;8.802;2023-04-16T01:58:51;55.67;;;32.88;;
20880;SDS011;10600;53.096;8.802;2023-04-16T01:59:52;54.13;;;32.63;;
20880;SDS011;10600;53.096;8.802;2023-04-16T02:00:52;55.15;;;31.77;;
20880;SDS011;10600;53.096;8.802;2023-04-16T02:01:53;52.30;;;32.60;;
20880;SDS011;10600;53.096;8.802;2023-04-16T02:02:54;48.30;;;31.60;;
20880;SDS011;10600;53.096;8.802;2023-04-16T02:03:55;50.13;;;31.45;;
20880;SDS011;10600;53.096;8.802;2023-04-16T02:04:56;50.22;;;30.77;;
20880;SDS011;10600;53.096;8.802;2023-04-16T02:05:57;52.97;;;32.75;;
20880;SDS011;10600;53.096;8.802;2023-04-16T02:06:57;56.70;;;32.72;;
20880;SDS011;10600;53.096;8.802;2023-04-16T02:07:58;47.53;;;32.00;;
20880;SDS011;10600;53.096;8.802;2023-04-16T02:08:59;51.25;;;31.30;;
20880;SDS011;10600;53.096;8.802;2023-04-16T02:09:59;53.50;;;33.47;;
20880;SDS011;10600;53.096;8.802;2023-04-16T02:11:00;52.05;;;32.10;;
20880;SDS011;10600;53.096;8.802;2023-04-16T02:12:01;53.55;;;32.65;;
20880;SDS011;10600;53.096;8.802;2023-04-16T02:13:02;53.63;;;32.28;;
20880;SDS011;10600;53.096;8.802;2023-04-16T02:14:03;53.33;;;31.63;;
20880;SDS011;10600;53.096;8.802;2023-04-16T02:15:03;53.60;;;32.25;;
20880;SDS011;10600;53.096;8.802;2023-04-16T02:16:04;53.17;;;32.95;;
20880;SDS011;10600;53.096;8.802;2023-04-16T02:17:05;49.65;;;32.72;;
20880;SDS011;10600;53.096;8.802;2023-04-16T02:18:06;50.88;;;30.40;;
20880;SDS011;10600;53.096;8.802;2023-04-16T02:19:06;53.60;;;32.22;;
20880;SDS011;10600;53.096;8.802;2023-04-16T02:20:07;50.08;;;32.65;;
20880;SDS011;10600;53.096;8.802;2023-04-16T02:21:09;51.95;;;30.92;;
20880;SDS011;10600;53.096;8.802;2023-04-16T02:22:10;49.00;;;32.08;;
20880;SDS011;10600;53.096;8.802;2023-04-16T02:23:11;53.10;;;33.30;;
20880;SDS011;10600;53.096;8.802;2023-04-16T02:24:14;52.13;;;32.10;;
20880;SDS011;10600;53.096;8.802;2023-04-16T02:25:14;51.88;;;31.73;;
20880;SDS011;10600;53.096;8.802;2023-04-16T02:26:15;52.15;;;32.83;;
20880;SDS011;10600;53.096;8.802;2023-04-16T02:27:16;51.17;;;31.63;;
20880;SDS011;10600;53.096;8.802;2023-04-16T02:28:16;53.30;;;32.70;;
20880;SDS011;10600;53.096;8.802;2023-04-16T02:29:17;45.97;;;30.75;;
20880;SDS011;10600;53.096;8.802;2023-04-16T02:30:18;49.53;;;31.83;;
20880;SDS011;10600;53.096;8.802;2023-04-16T02:31:19;54.67;;;32.63;;
20880;SDS011;10600;53.096;8.802;2023-04-16T02:32:21;52.00;;;34.08;;
20880;SDS011;10600;53.096;8.802;2023-04-16T02:33:21;54.08;;;31.80;;
20880;SDS011;10600;53.096;8.802;2023-04-16T02:34:25;56.15;;;34.33;;
20880;SDS011;10600;53.096;8.802;2023-04-16T02:35:25;45.60;;;30.50;;
20880;SDS011;10600;53.096;8.802;2023-04-16T02:36:26;50.38;;;30.27;;
20880;SDS011;10600;53.096;8.802;2023-04-16T02:37:27;51.88;;;32.15;;
20880;SDS011;10600;53.096;8.802;2023-04-16T02:38:27;49.25;;;29.77;;
20880;SDS011;10600;53.096;8.802;2023-04-16T02:39:28;50.00;;;32.45;;
20880;SDS011;10600;53.096;8.802;2023-04-16T02:40:29;52.17;;;32.80;;
20880;SDS011;10600;53.096;8.802;2023-04-16T02:41:30;52.60;;;33.80;;
20880;SDS011;10600;53.096;8.802;2023-04-16T02:42:31;48.47;;;31.42;;
20880;SDS011;10600;53.096;8.802;2023-04-16T02:43:31;50.40;;;30.80;;
20880;SDS011;10600;53.096;8.802;2023-04-16T02:44:32;51.90;;;32.25;;
20880;SDS011;10600;53.096;8.802;2023-04-16T02:45:32;51.08;;;33.45;;
20880;SDS011;10600;53.096;8.802;2023-04-16T02:46:33;52.38;;;32.88;;
20880;SDS011;10600;53.096;8.802;2023-04-16T02:47:34;50.13;;;32.72;;
20880;SDS011;10600;53.096;8.802;2023-04-16T02:48:34;50.47;;;32.58;;
20880;SDS011;10600;53.096;8.802;2023-04-16T02:49:35;52.17;;;31.75;;
20880;SDS011;10600;53.096;8.802;2023-04-16T02:50:36;49.90;;;30.33;;
20880;SDS011;10600;53.096;8.802;2023-04-16T02:51:36;52.75;;;31.08;;
20880;SDS011;10600;53.096;8.802;2023-04-16T02:52:37;52.85;;;32.17;;
20880;SDS011;10600;53.096;8.802;2023-04-16T02:53:38;51.55;;;32.28;;
20880;SDS011;10600;53.096;8.802;2023-04-16T02:54:38;50.33;;;31.70;;
20880;SDS011;10600;53.096;8.802;2023-04-16T02:55:39;53.90;;;32.85;;
20880;SDS011;10600;53.096;8.802;2023-04-16T02:56:40;48.10;;;31.52;;
20880;SDS011;10600;53.096;8.802;2023-04-16T02:57:40;47.50;;;30.40;;
20880;SDS011;10600;53.096;8.802;2023-04-16T02:58:41;48.65;;;32.42;;
20880;SDS011;10600;53.096;8.802;2023-04-16T02:59:42;49.42;;;30.58;;
20880;SDS011;10600;53.096;8.802;2023-04-16T03:00:42;49.40;;;32.75;;
20880;SDS011;10600;53.096;8.802;2023-04-16T03:01:43;48.75;;;31.40;;
20880;SDS011;10600;53.096;8.802;2023-04-16T03:02:43;47.13;;;30.67;;
20880;SDS011;10600;53.096;8.802;2023-04-16T03:03:44;51.30;;;31.25;;
20880;SDS011;10600;53.096;8.802;2023-04-16T03:04:44;51.65;;;33.35;;
20880;SDS011;10600;53.096;8.802;2023-04-16T03:05:45;47.88;;;30.38;;
20880;SDS011;10600;53.096;8.802;2023-04-16T03:06:46;51.10;;;31.67;;
20880;SDS011;10600;53.096;8.802;2023-04-16T03:07:47;50.00;;;30.73;;
20880;SDS011;10600;53.096;8.802;2023-04-16T03:08:49;52.75;;;31.27;;
20880;SDS011;10600;53.096;8.802;2023-04-16T03:09:50;51.85;;;32.33;;
20880;SDS011;10600;53.096;8.802;2023-04-16T03:10:50;47.83;;;30.50;;
20880;SDS011;10600;53.096;8.802;2023-04-16T03:11:51;47.30;;;30.15;;
20880;SDS011;10600;53.096;8.802;2023-04-16T03:12:51;47.28;;;30.33;;
20880;SDS011;10600;53.096;8.802;2023-04-16T03:13:52;47.33;;;30.98;;
20880;SDS011;10600;53.096;8.802;2023-04-16T03:14:53;48.28;;;32.17;;
20880;SDS011;10600;53.096;8.802;2023-04-16T03:15:53;50.17;;;31.17;;
20880;SDS011;10600;53.096;8.802;2023-04-16T03:16:54;50.42;;;31.30;;
20880;SDS011;10600;53.096;8.802;2023-04-16T03:17:55;47.83;;;30.85;;
20880;SDS011;10600;53.096;8.802;2023-04-16T03:18:56;48.22;;;31.73;;
20880;SDS011;10600;53.096;8.802;2023-04-16T03:19:57;51.70;;;31.35;;
20880;SDS011;10600;53.096;8.802;2023-04-16T03:20:57;49.42;;;29.63;;
20880;SDS011;10600;53.096;8.802;2023-04-16T03:21:58;44.58;;;29.92;;
20880;SDS011;10600;53.096;8.802;2023-04-16T03:22:59;45.47;;;31.08;;
20880;SDS011;10600;53.096;8.802;2023-04-16T03:23:59;46.47;;;30.35;;
20880;SDS011;10600;53.096;8.802;2023-04-16T03:25:00;52.40;;;32.20;;
20880;SDS011;10600;53.096;8.802;2023-04-16T03:26:01;49.65;;;31.02;;
20880;SDS011;10600;53.096;8.802;2023-04-16T03:27:01;50.83;;;30.30;;
20880;SDS011;10600;53.096;8.802;2023-04-16T03:28:02;49.15;;;30.88;;
20880;SDS011;10600;53.096;8.802;2023-04-16T03:29:03;49.28;;;29.80;;
20880;SDS011;10600;53.096;8.802;2023-04-16T03:30:05;47.55;;;30.05;;
20880;SDS011;10600;53.096;8.802;2023-04-16T03:31:12;50.85;;;32.53;;
20880;SDS011;10600;53.096;8.802;2023-04-16T03:32:12;51.10;;;31.73;;
20880;SDS011;10600;53.096;8.802;2023-04-16T03:33:13;48.40;;;31.23;;
20880;SDS011;10600;53.096;8.802;2023-04-16T03:34:14;50.33;;;31.65;;
20880;SDS011;10600;53.096;8.802;2023-04-16T03:35:15;50.85;;;32.15;;
20880;SDS011;10600;53.096;8.802;2023-04-16T03:36:15;51.50;;;30.90;;
20880;SDS011;10600;53.096;8.802;2023-04-16T03:37:16;48.78;;;31.67;;
20880;SDS011;10600;53.096;8.802;2023-04-16T03:38:16;60.78;;;32.05;;
20880;SDS011;10600;53.096;8.802;2023-04-16T03:39:17;56.40;;;33.10;;
20880;SDS011;10600;53.096;8.802;2023-04-16T03:40:18;54.22;;;32.67;;
20880;SDS011;10600;53.096;8.802;2023-04-16T03:41:18;53.05;;;32.60;;
20880;SDS011;10600;53.096;8.802;2023-04-16T03:42:19;51.95;;;32.58;;
20880;SDS011;10600;53.096;8.802;2023-04-16T03:43:20;53.53;;;32.45;;
20880;SDS011;10600;53.096;8.802;2023-04-16T03:44:20;50.97;;;32.42;;
20880;SDS011;10600;53.096;8.802;2023-04-16T03:45:21;56.75;;;34.17;;
20880;SDS011;10600;53.096;8.802;2023-04-16T03:46:21;52.15;;;32.13;;
20880;SDS011;10600;53.096;8.802;2023-04-16T03:47:22;49.50;;;33.00;;
20880;SDS011;10600;53.096;8.802;2023-04-16T03:48:23;49.65;;;29.35;;
20880;SDS011;10600;53.096;8.802;2023-04-16T03:49:23;54.55;;;33.40;;
20880;SDS011;10600;53.096;8.802;2023-04-16T03:50:24;54.22;;;32.30;;
20880;SDS011;10600;53.096;8.802;2023-04-16T03:51:25;53.58;;;33.03;;
20880;SDS011;10600;53.096;8.802;2023-04-16T03:52:26;56.20;;;33.13;;
20880;SDS011;10600;53.096;8.802;2023-04-16T03:53:27;51.42;;;32.72;;
20880;SDS011;10600;53.096;8.802;2023-04-16T03:54:27;52.20;;;33.20;;
20880;SDS011;10600;53.096;8.802;2023-04-16T03:55:28;53.60;;;32.92;;
20880;SDS011;10600;53.096;8.802;2023-04-16T03:56:29;54.67;;;33.40;;
20880;SDS011;10600;53.096;8.802;2023-04-16T03:57:29;49.80;;;31.65;;
20880;SDS011;10600;53.096;8.802;2023-04-16T03:58:30;52.92;;;33.33;;
20880;SDS011;10600;53.096;8.802;2023-04-16T03:59:30;58.95;;;33.63;;
20880;SDS011;10600;53.096;8.802;2023-04-16T04:00:31;53.10;;;33.50;;
20880;SDS011;10600;53.096;8.802;2023-04-16T04:01:32;51.60;;;32.80;;
20880;SDS011;10600;53.096;8.802;2023-04-16T04:02:32;54.00;;;34.10;;
20880;SDS011;10600;53.096;8.802;2023-04-16T04:03:33;58.67;;;34.80;;
20880;SDS011;10600;53.096;8.802;2023-04-16T04:04:33;51.42;;;32.20;;
20880;SDS011;10600;53.096;8.802;2023-04-16T04:05:40;56.70;;;33.30;;
20880;SDS011;10600;53.096;8.802;2023-04-16T04:06:42;56.60;;;32.90;;
20880;SDS011;10600;53.096;8.802;2023-04-16T04:07:45;51.25;;;33.45;;
20880;SDS011;10600;53.096;8.802;2023-04-16T04:08:45;50.13;;;32.28;;
20880;SDS011;10600;53.096;8.802;2023-04-16T04:09:46;53.17;;;33.50;;
20880;SDS011;10600;53.096;8.802;2023-04-16T04:10:47;54.05;;;32.88;;
20880;SDS011;10600;53.096;8.802;2023-04-16T04:11:47;52.97;;;32.42;;
20880;SDS011;10600;53.096;8.802;2023-04-16T04:12:49;57.03;;;33.10;;
20880;SDS011;10600;53.096;8.802;2023-04-16T04:13:50;50.80;;;33.90;;
20880;SDS011;10600;53.096;8.802;2023-04-16T04:14:50;49.03;;;31.20;;
20880;SDS011;10600;53.096;8.802;2023-04-16T04:15:51;56.65;;;33.58;;
20880;SDS011;10600;53.096;8.802;2023-04-16T04:16:51;52.67;;;33.45;;
20880;SDS011;10600;53.096;8.802;2023-04-16T04:17:52;51.30;;;32.83;;
20880;SDS011;10600;53.096;8.802;2023-04-16T04:18:53;53.40;;;32.15;;
20880;SDS011;10600;53.096;8.802;2023-04-16T04:19:54;53.45;;;33.47;;
20880;SDS011;10600;53.096;8.802;2023-04-16T04:20:55;52.33;;;32.58;;
20880;SDS011;10600;53.096;8.802;2023-04-16T04:21:56;52.75;;;33.45;;
20880;SDS011;10600;53.096;8.802;2023-04-16T04:22:56;52.33;;;33.25;;
20880;SDS011;10600;53.096;8.802;2023-04-16T04:23:57;54.00;;;32.60;;
20880;SDS011;10600;53.096;8.802;2023-04-16T04:24:58;51.78;;;31.17;;
20880;SDS011;10600;53.096;8.802;2023-04-16T04:25:58;48.22;;;30.80;;
20880;SDS011;10600;53.096;8.802;2023-04-16T04:27:02;52.30;;;32.78;;
20880;SDS011;10600;53.096;8.802;2023-04-16T04:28:03;52.90;;;32.92;;
20880;SDS011;10600;53.096;8.802;2023-04-16T04:29:03;50.35;;;33.08;;
20880;SDS011;10600;53.096;8.802;2023-04-16T04:30:04;51.70;;;32.42;;
20880;SDS011;10600;53.096;8.802;2023-04-16T04:31:06;53.85;;;33.45;;
20880;SDS011;10600;53.096;8.802;2023-04-16T04:32:06;54.50;;;33.10;;
20880;SDS011;10600;53.096;8.802;2023-04-16T04:33:07;52.05;;;31.42;;
20880;SDS011;10600;53.096;8.802;2023-04-16T04:34:07;54.75;;;33.53;;
20880;SDS011;10600;53.096;8.802;2023-04-16T04:35:08;58.15;;;34.38;;
20880;SDS011;10600;53.096;8.802;2023-04-16T04:36:09;50.58;;;32.72;;
20880;SDS011;10600;53.096;8.802;2023-04-16T04:37:09;51.88;;;31.48;;
20880;SDS011;10600;53.096;8.802;2023-04-16T04:38:10;55.83;;;32.42;;
20880;SDS011;10600;53.096;8.802;2023-04-16T04:39:11;50.50;;;31.55;;
20880;SDS011;10600;53.096;8.802;2023-04-16T04:40:11;51.88;;;32.45;;
20880;SDS011;10600;53.096;8.802;2023-04-16T04:41:12;55.08;;;33.47;;
20880;SDS011;10600;53.096;8.802;2023-04-16T04:42:13;52.70;;;33.10;;
20880;SDS011;10600;53.096;8.802;2023-04-16T04:43:16;50.85;;;32.65;;
20880;SDS011;10600;53.096;8.802;2023-04-16T04:44:17;51.30;;;31.20;;
20880;SDS011;10600;53.096;8.802;2023-04-16T04:45:17;53.70;;;32.88;;
20880;SDS011;10600;53.096;8.802;2023-04-16T04:46:18;54.97;;;31.67;;
20880;SDS011;10600;53.096;8.802;2023-04-16T04:47:18;46.40;;;31.60;;
20880;SDS011;10600;53.096;8.802;2023-04-16T04:48:19;52.53;;;32.60;;
20880;SDS011;10600;53.096;8.802;2023-04-16T04:49:25;56.13;;;33.03;;
20880;SDS011;10600;53.096;8.802;2023-04-16T04:50:25;50.05;;;32.05;;
20880;SDS011;10600;53.096;8.802;2023-04-16T04:51:26;54.83;;;33.80;;
20880;SDS011;10600;53.096;8.802;2023-04-16T04:52:27;51.95;;;29.90;;
20880;SDS011;10600;53.096;8.802;2023-04-16T04:53:27;53.72;;;31.38;;
20880;SDS011;10600;53.096;8.802;2023-04-16T04:54:29;56.90;;;32.78;;
20880;SDS011;10600;53.096;8.802;2023-04-16T04:55:30;56.70;;;30.65;;
20880;SDS011;10600;53.096;8.802;2023-04-16T04:56:31;48.38;;;30.85;;
20880;SDS011;10600;53.096;8.802;2023-04-16T04:57:31;50.00;;;31.15;;
20880;SDS011;10600;53.096;8.802;2023-04-16T04:58:32;48.63;;;30.55;;
20880;SDS011;10600;53.096;8.802;2023-04-16T04:59:33;49.13;;;30.10;;
20880;SDS011;10600;53.096;8.802;2023-04-16T05:00:34;47.10;;;30.00;;
20880;SDS011;10600;53.096;8.802;2023-04-16T05:01:35;48.60;;;30.40;;
20880;SDS011;10600;53.096;8.802;2023-04-16T05:02:37;50.58;;;30.42;;
20880;SDS011;10600;53.096;8.802;2023-04-16T05:03:37;53.08;;;31.23;;
20880;SDS011;10600;53.096;8.802;2023-04-16T05:04:38;48.78;;;31.27;;
20880;SDS011;10600;53.096;8.802;2023-04-16T05:05:39;47.83;;;30.77;;
20880;SDS011;10600;53.096;8.802;2023-04-16T05:06:40;48.40;;;30.98;;
20880;SDS011;10600;53.096;8.802;2023-04-16T05:07:41;47.83;;;29.45;;
20880;SDS011;10600;53.096;8.802;2023-04-16T05:08:41;49.78;;;30.45;;
20880;SDS011;10600;53.096;8.802;2023-04-16T05:09:42;51.15;;;30.17;;
20880;SDS011;10600;53.096;8.802;2023-04-16T05:10:42;46.08;;;30.45;;
20880;SDS011;10600;53.096;8.802;2023-04-16T05:11:43;48.08;;;27.83;;
20880;SDS011;10600;53.096;8.802;2023-04-16T05:12:44;49.00;;;30.23;;
20880;SDS011;10600;53.096;8.802;2023-04-16T05:13:47;47.67;;;28.85;;
20880;SDS011;10600;53.096;8.802;2023-04-16T05:14:47;52.20;;;29.73;;
20880;SDS011;10600;53.096;8.802;2023-04-16T05:15:48;47.30;;;30.13;;
20880;SDS011;10600;53.096;8.802;2023-04-16T05:16:49;47.50;;;29.63;;
20880;SDS011;10600;53.096;8.802;2023-04-16T05:17:49;50.13;;;30.10;;
20880;SDS011;10600;53.096;8.802;2023-04-16T05:18:50;49.30;;;29.58;;
20880;SDS011;10600;53.096;8.802;2023-04-16T05:19:50;46.53;;;28.20;;
20880;SDS011;10600;53.096;8.802;2023-04-16T05:20:51;45.15;;;28.02;;
20880;SDS011;10600;53.096;8.802;2023-04-16T05:21:52;47.17;;;29.60;;
20880;SDS011;10600;53.096;8.802;2023-04-16T05:22:53;46.05;;;29.45;;
20880;SDS011;10600;53.096;8.802;2023-04-16T05:23:54;43.72;;;27.58;;
20880;SDS011;10600;53.096;8.802;2023-04-16T05:24:55;48.45;;;28.27;;
20880;SDS011;10600;53.096;8.802;2023-04-16T05:25:55;49.10;;;29.23;;
20880;SDS011;10600;53.096;8.802;2023-04-16T05:26:56;44.85;;;27.23;;
20880;SDS011;10600;53.096;8.802;2023-04-16T05:27:57;43.75;;;27.98;;
20880;SDS011;10600;53.096;8.802;2023-04-16T05:28:57;47.17;;;28.13;;
20880;SDS011;10600;53.096;8.802;2023-04-16T05:29:58;43.80;;;28.58;;
20880;SDS011;10600;53.096;8.802;2023-04-16T05:30:58;45.42;;;28.35;;
20880;SDS011;10600;53.096;8.802;2023-04-16T05:31:59;43.88;;;28.23;;
20880;SDS011;10600;53.096;8.802;2023-04-16T05:33:00;46.00;;;27.25;;
20880;SDS011;10600;53.096;8.802;2023-04-16T05:34:01;43.95;;;27.70;;
20880;SDS011;10600;53.096;8.802;2023-04-16T05:35:02;43.50;;;25.27;;
20880;SDS011;10600;53.096;8.802;2023-04-16T05:36:02;47.72;;;29.23;;
20880;SDS011;10600;53.096;8.802;2023-04-16T05:37:03;44.33;;;28.20;;
20880;SDS011;10600;53.096;8.802;2023-04-16T05:38:04;46.92;;;28.33;;
20880;SDS011;10600;53.096;8.802;2023-04-16T05:39:05;43.53;;;28.50;;
20880;SDS011;10600;53.096;8.802;2023-04-16T05:40:06;43.03;;;25.60;;
20880;SDS011;10600;53.096;8.802;2023-04-16T05:41:08;45.15;;;27.85;;
20880;SDS011;10600;53.096;8.802;2023-04-16T05:42:08;44.72;;;26.75;;
20880;SDS011;10600;53.096;8.802;2023-04-16T05:43:09;43.40;;;26.95;;
20880;SDS011;10600;53.096;8.802;2023-04-16T05:44:10;44.17;;;27.23;;
20880;SDS011;10600;53.096;8.802;2023-04-16T05:45:10;42.58;;;25.70;;
20880;SDS011;10600;53.096;8.802;2023-04-16T05:46:11;45.90;;;28.70;;
20880;SDS011;10600;53.096;8.802;2023-04-16T05:47:11;43.90;;;26.40;;
20880;SDS011;10600;53.096;8.802;2023-04-16T05:48:12;40.90;;;26.08;;
20880;SDS011;10600;53.096;8.802;2023-04-16T05:49:13;43.90;;;26.98;;
20880;SDS011;10600;53.096;8.802;2023-04-16T05:50:14;49.25;;;28.17;;
20880;SDS011;10600;53.096;8.802;2023-04-16T05:51:15;40.72;;;25.08;;
20880;SDS011;10600;53.096;8.802;2023-04-16T05:52:15;40.95;;;25.52;;
20880;SDS011;10600;53.096;8.802;2023-04-16T05:53:16;40.58;;;26.75;;
20880;SDS011;10600;53.096;8.802;2023-04-16T05:54:18;41.80;;;24.63;;
20880;SDS011;10600;53.096;8.802;2023-04-16T05:55:18;39.63;;;25.67;;
20880;SDS011;10600;53.096;8.802;2023-04-16T05:56:19;38.97;;;25.27;;